Time;durP1;ratioP1;P1;durP2;ratioP2;P2;SDS_P1;SDS_P2;PMS_P1;PMS_P2;Temp;Humidity;BMP_temperature;BMP_pressure;BME280_temperature;BME280_humidity;BME280_pressure;Samples;Min_cycle;Max_cycle;Signal;HPM_P1;HPM_P2
2022/12/03 00:00:31;;;;;;;9.70;6.22;;;;;;;7.21;59.47;94510.06;5037980;28;20033;-78
2022/12/03 00:02:56;;;;;;;9.77;6.38;;;;;;;7.21;59.41;94511.91;5008703;28;20044;-77
2022/12/03 00:05:21;;;;;;;9.80;5.75;;;;;;;7.36;59.00;94535.63;5025667;28;20064;-78
2022/12/03 00:07:47;;;;;;;8.40;5.00;;;;;;;7.23;58.97;94523.03;5022017;28;20039;-78
2022/12/03 00:10:12;;;;;;;9.77;5.70;;;;;;;7.26;58.99;94535.69;5026321;28;20029;-76
2022/12/03 00:12:38;;;;;;;11.20;5.78;;;;;;;7.37;59.21;94553.09;5026719;28;20473;-76
2022/12/03 00:15:06;;;;;;;8.93;5.25;;;;;;;7.33;59.09;94552.06;5008416;28;20448;-77
2022/12/03 00:17:31;;;;;;;8.85;5.45;;;;;;;7.02;59.31;94518.91;5026001;28;20033;-77
2022/12/03 00:19:57;;;;;;;11.30;6.97;;;;;;;7.14;59.79;94540.53;5025203;28;20040;-78
2022/12/03 00:22:22;;;;;;;10.57;6.05;;;;;;;7.11;59.41;94560.38;5023238;28;20045;-76
2022/12/03 00:24:47;;;;;;;9.35;5.10;;;;;;;7.15;59.77;94565.91;5021527;28;20079;-76
2022/12/03 00:27:13;;;;;;;8.35;5.25;;;;;;;7.01;59.47;94543.75;5023579;28;20041;-75
2022/12/03 00:29:38;;;;;;;8.80;5.80;;;;;;;7.14;59.61;94559.06;5027052;28;20611;-79
2022/12/03 00:32:04;;;;;;;8.70;5.30;;;;;;;7.12;59.64;94555.88;5026923;28;20533;-79
2022/12/03 00:34:29;;;;;;;9.93;6.32;;;;;;;6.84;60.03;94549.41;5024426;28;20044;-77
2022/12/03 00:36:54;;;;;;;9.70;5.97;;;;;;;6.92;60.20;94555.97;5028828;28;20076;-76
2022/12/03 00:39:20;;;;;;;10.13;6.55;;;;;;;6.81;60.43;94549.94;5026593;28;20032;-77
2022/12/03 00:41:45;;;;;;;12.07;7.28;;;;;;;6.61;60.90;94566.66;5023284;28;20660;-77
2022/12/03 00:44:11;;;;;;;10.95;5.95;;;;;;;6.46;61.63;94579.91;5025094;28;20044;-78
2022/12/03 00:46:36;;;;;;;9.77;6.55;;;;;;;6.36;62.51;94572.03;5012290;28;20091;-78
2022/12/03 00:49:01;;;;;;;11.82;6.63;;;;;;;6.31;62.61;94558.84;5026675;28;20059;-77
2022/12/03 00:51:27;;;;;;;11.98;8.20;;;;;;;6.53;62.70;94577.81;5025366;28;20032;-78
2022/12/03 00:53:52;;;;;;;10.48;6.53;;;;;;;6.61;62.07;94581.72;5025193;28;20164;-77
2022/12/03 00:56:17;;;;;;;12.27;6.78;;;;;;;6.56;62.11;94561.41;5022599;28;20539;-78
2022/12/03 00:58:43;;;;;;;13.20;6.50;;;;;;;6.51;62.06;94557.97;5027276;28;20955;-77
2022/12/03 01:01:08;;;;;;;10.85;6.75;;;;;;;6.41;62.34;94566.72;5024188;28;20045;-77
2022/12/03 01:03:34;;;;;;;12.23;7.20;;;;;;;6.58;61.93;94584.91;5028657;28;20021;-76
2022/12/03 01:05:59;;;;;;;14.27;7.45;;;;;;;6.43;62.08;94575.97;5026230;28;20469;-78
2022/12/03 01:08:24;;;;;;;10.68;6.60;;;;;;;6.44;62.38;94582.06;5021443;28;20580;-76
2022/12/03 01:10:50;;;;;;;11.02;6.70;;;;;;;6.38;61.94;94567.25;5025913;28;20033;-75
2022/12/03 01:13:15;;;;;;;9.90;6.35;;;;;;;6.15;61.99;94542.19;5027564;28;20029;-78
2022/12/03 01:15:41;;;;;;;9.90;6.50;;;;;;;6.63;61.78;94598.13;5026642;28;20029;-76
2022/12/03 01:18:06;;;;;;;11.73;6.30;;;;;;;6.51;62.21;94603.69;5029383;28;20037;-75
2022/12/03 01:20:31;;;;;;;11.60;6.55;;;;;;;6.43;62.21;94580.47;5026939;28;20489;-76
2022/12/03 01:22:57;;;;;;;12.18;6.70;;;;;;;6.48;61.93;94580.47;5029806;28;20033;-76
2022/12/03 01:25:22;;;;;;;9.63;6.13;;;;;;;6.56;61.66;94585.19;5031105;28;20495;-77
2022/12/03 01:27:48;;;;;;;11.15;6.32;;;;;;;6.56;61.70;94593.09;5015755;28;20037;-77
2022/12/03 01:30:13;;;;;;;11.82;6.90;;;;;;;6.55;61.91;94594.19;5030871;28;20550;-76
2022/12/03 01:32:39;;;;;;;11.10;6.00;;;;;;;6.48;62.06;94574.38;5027468;28;20510;-76
2022/12/03 01:35:04;;;;;;;11.65;7.10;;;;;;;6.64;61.72;94584.66;5029702;28;20837;-76
2022/12/03 01:37:30;;;;;;;11.98;7.13;;;;;;;6.71;61.50;94602.84;5029426;28;20094;-76
2022/12/03 01:39:56;;;;;;;8.52;5.38;;;;;;;6.77;61.81;94605.22;5028180;28;20025;-78
2022/12/03 01:42:25;;;;;;;9.88;5.95;;;;;;;6.71;61.40;94579.06;5012433;28;20540;-77
2022/12/03 01:44:53;;;;;;;8.85;6.28;;;;;;;6.79;61.34;94589.88;5030018;28;20045;-75
2022/12/03 01:47:23;;;;;;;10.07;6.30;;;;;;;6.68;61.09;94566.38;5027868;28;20073;-76
2022/12/03 01:49:52;;;;;;;9.35;6.18;;;;;;;6.63;60.90;94564.56;5029309;28;20045;-77
2022/12/03 01:52:22;;;;;;;11.73;6.18;;;;;;;6.94;60.99;94607.56;5030330;28;20029;-77
2022/12/03 01:54:54;;;;;;;9.15;5.93;;;;;;;7.01;60.89;94604.59;5032552;28;20075;-77
2022/12/03 01:57:40;;;;;;;10.05;6.40;;;;;;;6.77;60.77;94557.63;5030672;28;20044;-76
2022/12/03 02:00:10;;;;;;;10.05;6.97;;;;;;;7.03;60.57;94579.47;5028247;28;20491;-76
2022/12/03 02:02:35;;;;;;;13.70;6.63;;;;;;;7.12;60.35;94598.19;5026323;28;20041;-76
2022/12/03 02:05:13;;;;;;;9.63;6.10;;;;;;;7.16;60.33;94596.59;5029975;28;20407;-78
2022/12/03 02:07:38;;;;;;;10.02;6.35;;;;;;;7.02;60.23;94569.16;5011987;28;20041;-76
2022/12/03 02:10:05;;;;;;;9.40;6.20;;;;;;;7.14;60.21;94586.28;5030528;28;20829;-76
2022/12/03 02:12:41;;;;;;;8.85;5.90;;;;;;;6.80;60.16;94528.00;5030663;28;20029;-76
2022/12/03 02:15:09;;;;;;;9.38;5.78;;;;;;;7.19;59.97;94594.19;5011622;28;20086;-76
2022/12/03 02:17:34;;;;;;;9.27;6.25;;;;;;;7.15;60.02;94600.28;5029979;28;20073;-78
2022/12/03 02:20:01;;;;;;;11.20;6.90;;;;;;;7.16;59.82;94600.03;5029142;28;20128;-77
2022/12/03 02:22:38;;;;;;;12.30;6.75;;;;;;;7.20;59.68;94595.78;5027470;28;20037;-78
2022/12/03 02:25:18;;;;;;;11.18;6.50;;;;;;;7.09;59.73;94582.88;5029331;28;20638;-77
2022/12/03 02:27:45;;;;;;;8.70;6.40;;;;;;;7.17;59.66;94582.31;5011417;28;20177;-77
2022/12/03 02:30:12;;;;;;;9.73;6.78;;;;;;;7.19;59.65;94585.47;5025764;28;20055;-78
2022/12/03 02:32:38;;;;;;;11.32;6.88;;;;;;;7.15;59.51;94576.47;5027471;28;20037;-75
2022/12/03 02:35:04;;;;;;;10.30;6.32;;;;;;;7.24;59.59;94590.72;5012675;28;20315;-78
2022/12/03 02:37:34;;;;;;;11.07;6.65;;;;;;;7.18;59.47;94582.03;5031512;28;20053;-77
2022/12/03 02:40:07;;;;;;;11.70;6.75;;;;;;;7.22;59.69;94585.72;5027816;28;20017;-76
2022/12/03 02:42:35;;;;;;;12.98;7.40;;;;;;;7.20;59.53;94585.19;5013134;28;20025;-76
2022/12/03 02:45:05;;;;;;;11.77;6.93;;;;;;;7.24;59.50;94596.00;5014495;28;20696;-76
2022/12/03 02:47:34;;;;;;;9.85;6.78;;;;;;;7.06;59.72;94578.13;5026479;28;20029;-78
2022/12/03 02:50:00;;;;;;;9.93;6.70;;;;;;;7.06;59.65;94570.19;5027955;28;20029;-77
2022/12/03 02:52:26;;;;;;;10.07;7.25;;;;;;;7.07;59.72;94575.22;5010587;28;20048;-78
2022/12/03 02:54:52;;;;;;;13.68;7.45;;;;;;;7.22;59.68;94587.56;5017519;28;20044;-77
2022/12/03 02:57:17;;;;;;;10.75;6.15;;;;;;;7.19;59.52;94588.13;5028427;28;20105;-78
2022/12/03 02:59:44;;;;;;;10.88;6.15;;;;;;;7.11;59.68;94589.47;5026043;28;20108;-76
2022/12/03 03:02:11;;;;;;;9.57;6.20;;;;;;;6.95;59.68;94556.22;5028942;28;20156;-76
2022/12/03 03:04:37;;;;;;;11.45;7.25;;;;;;;7.10;59.78;94579.94;5028526;28;20040;-76
2022/12/03 03:07:03;;;;;;;10.82;7.60;;;;;;;6.98;59.74;94584.78;5028330;28;20148;-77
2022/12/03 03:09:28;;;;;;;14.60;7.57;;;;;;;6.97;60.36;94599.06;5028256;28;20043;-76
2022/12/03 03:11:54;;;;;;;13.43;8.35;;;;;;;7.02;60.19;94592.97;5028374;28;20080;-76
2022/12/03 03:14:19;;;;;;;8.77;6.72;;;;;;;7.05;60.07;94587.13;5012944;28;20112;-77
2022/12/03 03:16:54;;;;;;;14.43;8.13;;;;;;;7.00;60.23;94581.84;5028457;28;20025;-74
2022/12/03 03:19:20;;;;;;;11.25;7.13;;;;;;;7.05;60.08;94587.91;5023819;28;20029;-78
2022/12/03 03:21:45;;;;;;;10.50;6.82;;;;;;;7.04;60.38;94580.25;5028470;28;20487;-77
2022/12/03 03:24:10;;;;;;;10.38;6.60;;;;;;;7.04;60.00;94582.91;5027188;28;20247;-77
2022/12/03 03:26:36;;;;;;;12.52;6.80;;;;;;;6.87;60.08;94570.00;5028758;28;20119;-77
2022/12/03 03:29:02;;;;;;;10.48;7.30;;;;;;;6.89;59.95;94546.75;5027765;28;20042;-78
2022/12/03 03:31:27;;;;;;;10.35;6.88;;;;;;;6.83;60.17;94535.41;5021735;28;20045;-78
2022/12/03 03:33:52;;;;;;;8.95;6.38;;;;;;;6.86;59.55;94537.50;5026832;28;20021;-78
2022/12/03 03:36:19;;;;;;;10.38;6.43;;;;;;;6.79;59.67;94542.28;5026970;28;20104;-77
2022/12/03 03:38:45;;;;;;;13.02;6.93;;;;;;;7.08;59.73;94586.59;5026878;28;20161;-78
2022/12/03 03:41:12;;;;;;;9.25;6.05;;;;;;;7.07;59.63;94585.78;5027576;28;20715;-77
2022/12/03 03:43:38;;;;;;;11.18;6.22;;;;;;;7.09;59.95;94585.53;5024896;28;20551;-79
2022/12/03 03:46:06;;;;;;;9.80;6.60;;;;;;;7.06;59.85;94586.84;5025335;28;20036;-78
2022/12/03 03:48:33;;;;;;;8.30;5.57;;;;;;;6.80;59.83;94570.28;5028699;28;20619;-77
2022/12/03 03:50:59;;;;;;;9.45;5.93;;;;;;;7.01;59.93;94601.94;5026679;28;20776;-76
2022/12/03 03:53:25;;;;;;;8.65;5.18;;;;;;;6.97;60.00;94596.41;5029550;28;20036;-77
2022/12/03 03:55:51;;;;;;;7.68;5.40;;;;;;;6.94;59.81;94580.31;5027058;28;20045;-77
2022/12/03 03:58:16;;;;;;;11.27;6.15;;;;;;;6.89;59.73;94561.81;5028266;28;20130;-78
2022/12/03 04:00:43;;;;;;;9.50;5.22;;;;;;;7.00;59.58;94571.25;5028370;28;20115;-77
2022/12/03 04:03:09;;;;;;;8.95;5.95;;;;;;;6.99;59.74;94569.72;5027965;28;20072;-77
2022/12/03 04:05:35;;;;;;;7.95;5.53;;;;;;;7.11;59.63;94591.31;5027216;28;20064;-77
2022/12/03 04:08:00;;;;;;;10.93;6.20;;;;;;;6.93;59.62;94571.56;5025967;28;20029;-78
2022/12/03 04:13:10;;;;;;;9.05;5.55;;;;;;;6.99;59.74;94582.94;5026520;28;20160;-77
2022/12/03 04:15:35;;;;;;;9.57;6.40;;;;;;;7.05;59.77;94597.69;5030265;28;20025;-76
2022/12/03 04:20:44;;;;;;;9.07;5.47;;;;;;;7.19;59.57;94627.81;5025577;28;20133;-75
2022/12/03 04:23:10;;;;;;;10.77;5.32;;;;;;;7.02;59.48;94588.47;5018693;28;20404;-77
2022/12/03 04:35:41;;;;;;;8.10;5.03;;;;;;;7.10;59.45;94606.41;5024996;28;20464;-77
2022/12/03 04:36:33;;;;;;;6.85;4.95;;;;;;;7.17;59.16;94633.38;5027010;28;20520;-76
2022/12/03 04:38:58;;;;;;;7.25;4.72;;;;;;;7.14;59.08;94638.41;5026384;28;20037;-77
2022/12/03 04:41:24;;;;;;;10.00;5.50;;;;;;;7.17;59.25;94637.88;5025948;28;20037;-77
2022/12/03 04:46:33;;;;;;;7.15;4.97;;;;;;;7.09;59.12;94614.63;5028013;28;20036;-77
2022/12/03 04:48:59;;;;;;;9.45;4.97;;;;;;;7.09;59.06;94617.28;5025307;28;20029;-77
2022/12/03 04:51:24;;;;;;;9.35;4.63;;;;;;;6.99;59.04;94593.50;5028121;28;20106;-76
2022/12/03 04:53:49;;;;;;;8.52;4.80;;;;;;;7.13;58.98;94615.66;5013484;28;20619;-77
2022/12/03 04:56:15;;;;;;;9.63;5.63;;;;;;;7.17;58.91;94624.63;5025495;28;20037;-76
2022/12/03 04:58:40;;;;;;;7.35;4.15;;;;;;;6.99;59.08;94596.16;5022256;28;20026;-77
2022/12/03 05:01:05;;;;;;;5.65;3.67;;;;;;;7.08;58.56;94619.13;5025245;28;20041;-77
2022/12/03 05:03:31;;;;;;;4.80;3.92;;;;;;;7.13;58.52;94626.25;5028118;28;20021;-77
2022/12/03 05:05:56;;;;;;;8.90;5.10;;;;;;;6.92;58.62;94614.16;5027357;28;20571;-77
2022/12/03 05:08:22;;;;;;;5.80;4.22;;;;;;;6.87;58.66;94607.03;5021819;28;20025;-78
2022/12/03 05:10:47;;;;;;;6.75;3.97;;;;;;;6.94;58.83;94626.06;5024449;28;20461;-78
2022/12/03 05:13:12;;;;;;;8.20;3.97;;;;;;;6.86;58.92;94618.66;5026586;28;20572;-77
2022/12/03 05:15:38;;;;;;;7.45;4.80;;;;;;;6.63;59.60;94616.63;5027746;28;20056;-79
2022/12/03 05:18:03;;;;;;;6.15;4.18;;;;;;;6.49;59.71;94619.03;5025956;28;20041;-77
2022/12/03 05:20:40;;;;;;;6.13;4.00;;;;;;;6.50;60.54;94631.19;5025307;28;20063;-77
2022/12/03 05:23:08;;;;;;;5.15;3.13;;;;;;;6.42;60.46;94626.44;5007594;28;20056;-78
2022/12/03 05:25:33;;;;;;;6.03;3.55;;;;;;;6.53;60.43;94633.31;5007933;28;20044;-78
2022/12/03 05:27:59;;;;;;;5.95;3.78;;;;;;;6.61;60.18;94631.94;5027163;28;20033;-77
2022/12/03 05:30:24;;;;;;;5.50;3.45;;;;;;;6.57;60.06;94618.50;5009454;28;20066;-77
2022/12/03 05:32:50;;;;;;;6.25;3.70;;;;;;;6.48;59.74;94604.25;5024607;28;20529;-74
2022/12/03 05:35:15;;;;;;;7.18;4.30;;;;;;;6.62;59.92;94631.69;5025163;28;20033;-76
2022/12/03 05:37:41;;;;;;;7.40;4.50;;;;;;;6.54;60.04;94629.59;5010123;28;20107;-78
2022/12/03 05:40:07;;;;;;;4.93;3.63;;;;;;;6.21;60.16;94572.06;5025784;28;20032;-76
2022/12/03 05:45:17;;;;;;;8.93;6.13;;;;;;;6.50;60.12;94627.75;5025761;28;20035;-76
2022/12/03 05:47:42;;;;;;;7.25;5.20;;;;;;;6.66;60.37;94645.16;5023359;28;20036;-76
2022/12/03 05:50:08;;;;;;;8.52;5.63;;;;;;;6.69;60.00;94650.72;5021484;28;20037;-77
2022/12/03 05:52:33;;;;;;;5.80;4.13;;;;;;;6.59;60.16;94631.44;5024617;28;20087;-75
2022/12/03 05:54:59;;;;;;;13.35;6.78;;;;;;;6.49;60.12;94620.88;5022674;28;20039;-75
2022/12/03 05:57:24;;;;;;;15.45;10.13;;;;;;;6.68;60.37;94653.63;5024528;28;20589;-76
2022/12/03 05:59:49;;;;;;;12.73;8.40;;;;;;;6.59;60.23;94648.09;5013320;28;20037;-75
2022/12/03 06:02:15;;;;;;;8.50;6.43;;;;;;;6.51;60.83;94640.69;5027097;28;20045;-77
2022/12/03 06:04:40;;;;;;;9.15;6.40;;;;;;;6.60;60.76;94654.19;5028646;28;20448;-76
2022/12/03 06:07:06;;;;;;;9.48;6.43;;;;;;;6.71;60.66;94669.72;5028604;28;20021;-76
2022/12/03 06:09:31;;;;;;;6.88;4.93;;;;;;;6.64;60.44;94650.72;5018480;28;20021;-76
2022/12/03 06:11:56;;;;;;;7.10;4.63;;;;;;;6.66;60.24;94659.16;5030001;28;20048;-76
2022/12/03 06:14:22;;;;;;;5.57;4.25;;;;;;;6.76;60.31;94658.34;5029302;28;20033;-76
2022/12/03 06:16:47;;;;;;;9.45;5.28;;;;;;;6.68;60.29;94646.50;5012630;28;20748;-77
2022/12/03 06:19:12;;;;;;;12.45;6.55;;;;;;;6.82;60.21;94673.16;5024798;28;20112;-75
2022/12/03 06:21:38;;;;;;;10.20;6.00;;;;;;;6.59;60.21;94632.25;5011569;28;20033;-76
2022/12/03 06:24:03;;;;;;;7.85;4.65;;;;;;;6.85;60.37;94670.75;5029305;28;20415;-77
2022/12/03 06:26:29;;;;;;;7.07;4.55;;;;;;;6.78;60.07;94657.03;5029117;28;20688;-75
2022/12/03 06:28:55;;;;;;;6.82;4.53;;;;;;;6.88;60.03;94672.09;5028614;28;20037;-78
2022/12/03 06:31:20;;;;;;;8.52;6.03;;;;;;;6.94;60.08;94680.81;5026834;28;20037;-77
2022/12/03 06:33:45;;;;;;;7.47;4.70;;;;;;;6.91;59.88;94682.13;5029560;28;20476;-75
2022/12/03 06:36:11;;;;;;;9.35;5.97;;;;;;;6.88;59.76;94681.88;5028561;28;20512;-76
2022/12/03 06:38:37;;;;;;;6.45;4.85;;;;;;;6.74;60.04;94687.72;5030175;28;20080;-76
2022/12/03 06:41:02;;;;;;;7.20;5.07;;;;;;;6.84;60.36;94687.72;5026638;28;20064;-76
2022/12/03 06:43:29;;;;;;;7.47;4.93;;;;;;;6.79;60.03;94679.00;5028286;28;20073;-77
2022/12/03 06:45:55;;;;;;;7.70;4.43;;;;;;;6.41;61.46;94667.13;5026338;28;20029;-75
2022/12/03 06:48:20;;;;;;;6.15;4.28;;;;;;;6.42;61.47;94666.06;5027474;28;20362;-76
2022/12/03 06:50:46;;;;;;;6.65;4.38;;;;;;;6.00;62.29;94646.00;5024717;28;20041;-76
2022/12/03 06:53:11;;;;;;;7.30;4.40;;;;;;;5.56;63.12;94594.75;5027844;28;20026;-76
2022/12/03 06:55:36;;;;;;;5.78;3.78;;;;;;;6.13;63.19;94659.72;5025573;28;20052;-76
2022/12/03 06:58:03;;;;;;;7.00;4.00;;;;;;;5.86;63.63;94655.50;5027128;28;20553;-76
2022/12/03 07:00:28;;;;;;;7.55;5.13;;;;;;;5.77;64.64;94666.84;5025093;28;20460;-77
2022/12/03 07:02:54;;;;;;;8.82;5.35;;;;;;;5.62;65.44;94680.81;5024279;28;20115;-75
2022/12/03 07:05:19;;;;;;;6.80;5.13;;;;;;;5.52;65.64;94680.78;5027665;28;20041;-76
2022/12/03 07:07:50;;;;;;;7.65;5.45;;;;;;;5.34;66.82;94691.78;5024988;28;20052;-76
2022/12/03 07:10:19;;;;;;;7.20;4.55;;;;;;;5.30;66.94;94696.78;5015622;28;20037;-75
2022/12/03 07:12:44;;;;;;;11.52;4.47;;;;;;;5.23;67.11;94682.25;5028369;28;20106;-76
2022/12/03 07:15:10;;;;;;;4.97;3.53;;;;;;;5.16;67.02;94695.69;5027927;28;20037;-76
2022/12/03 07:17:36;;;;;;;6.65;4.15;;;;;;;4.82;67.91;94676.78;5015804;28;20775;-76
2022/12/03 07:20:03;;;;;;;5.43;4.38;;;;;;;4.67;68.86;94684.59;5025097;28;20041;-76
2022/12/03 07:22:31;;;;;;;7.13;4.35;;;;;;;4.83;68.71;94712.66;5026082;28;20086;-76
2022/12/03 07:24:56;;;;;;;5.43;4.28;;;;;;;4.87;68.60;94700.53;5026451;28;20125;-76
2022/12/03 07:27:22;;;;;;;7.28;4.30;;;;;;;4.96;68.35;94709.56;5025911;28;20036;-76
2022/12/03 07:29:47;;;;;;;6.75;4.30;;;;;;;5.07;68.20;94713.84;5024692;28;20108;-75
2022/12/03 07:32:13;;;;;;;7.57;4.18;;;;;;;5.28;67.63;94708.66;5007413;28;20481;-75
2022/12/03 07:34:38;;;;;;;7.55;5.30;;;;;;;5.24;67.06;94681.19;5023705;28;20397;-76
2022/12/03 07:37:04;;;;;;;5.80;3.88;;;;;;;5.60;66.57;94711.13;5023073;28;21096;-77
2022/12/03 07:39:29;;;;;;;6.55;4.18;;;;;;;5.55;66.26;94688.94;5023461;28;20136;-76
2022/12/03 07:41:54;;;;;;;5.32;3.55;;;;;;;5.78;65.77;94702.72;5027756;28;20044;-75
2022/12/03 07:44:20;;;;;;;6.60;4.57;;;;;;;5.83;64.61;94718.56;5008823;28;20033;-75
2022/12/03 07:46:45;;;;;;;6.38;4.32;;;;;;;5.86;64.70;94710.16;5027255;28;20146;-76
2022/12/03 07:49:11;;;;;;;5.82;4.25;;;;;;;6.04;64.44;94719.41;5014553;28;20021;-77
2022/12/03 07:51:37;;;;;;;7.72;4.47;;;;;;;6.02;63.56;94721.53;5028127;28;20037;-77
2022/12/03 07:54:03;;;;;;;6.63;3.88;;;;;;;6.13;63.41;94717.81;5026043;28;21116;-76
2022/12/03 07:56:29;;;;;;;7.93;4.07;;;;;;;5.84;63.11;94665.50;5015701;28;20041;-76
2022/12/03 07:58:54;;;;;;;6.05;3.67;;;;;;;6.20;62.85;94719.19;5025997;28;20032;-75
2022/12/03 08:01:19;;;;;;;11.90;8.82;;;;;;;6.09;62.14;94682.44;5026446;28;20072;-77
2022/12/03 08:03:45;;;;;;;8.80;6.78;;;;;;;6.32;62.03;94719.72;5026084;28;20044;-78
2022/12/03 08:06:10;;;;;;;7.55;5.80;;;;;;;6.26;61.34;94690.94;5027697;28;20041;-76
2022/12/03 08:08:35;;;;;;;6.88;5.38;;;;;;;6.29;61.31;94707.06;5028271;28;20068;-76
2022/12/03 08:11:01;;;;;;;6.10;3.65;;;;;;;6.03;61.31;94708.03;5026187;28;20034;-76
2022/12/03 08:13:27;;;;;;;5.60;3.65;;;;;;;6.02;61.55;94721.53;5027950;28;20032;-76
2022/12/03 08:15:56;;;;;;;4.70;3.20;;;;;;;5.99;61.96;94721.00;5027251;28;20028;-75
2022/12/03 08:18:21;;;;;;;5.85;3.88;;;;;;;5.79;62.27;94723.59;5009803;28;20603;-77
2022/12/03 08:20:49;;;;;;;4.35;2.60;;;;;;;5.53;62.88;94706.88;5026437;28;20032;-77
2022/12/03 08:23:16;;;;;;;4.63;3.25;;;;;;;5.84;62.41;94710.41;5009043;28;20040;-76
2022/12/03 08:25:42;;;;;;;9.85;5.28;;;;;;;5.86;62.01;94728.63;5026853;28;20033;-75
2022/12/03 08:28:13;;;;;;;5.93;4.70;;;;;;;5.96;61.68;94718.09;5024459;28;20029;-75
2022/12/03 08:30:42;;;;;;;6.40;4.65;;;;;;;5.59;62.90;94728.81;5026455;28;20063;-75
2022/12/03 08:33:16;;;;;;;5.63;3.65;;;;;;;5.77;63.07;94741.56;5024280;28;20049;-76
2022/12/03 08:35:48;;;;;;;5.75;4.57;;;;;;;5.81;62.03;94704.84;5012186;28;20064;-75
2022/12/03 08:38:14;;;;;;;6.72;5.35;;;;;;;6.07;62.23;94746.06;5027853;28;20717;-76
2022/12/03 08:40:42;;;;;;;5.10;4.10;;;;;;;6.03;61.74;94737.09;5025958;28;20483;-75
2022/12/03 08:43:20;;;;;;;7.25;4.88;;;;;;;6.29;61.41;94740.59;5026120;28;20056;-77
2022/12/03 08:45:48;;;;;;;6.85;4.72;;;;;;;6.29;61.10;94733.47;5020705;28;21837;-76
2022/12/03 08:48:33;;;;;;;7.45;4.53;;;;;;;6.47;61.08;94745.34;5024908;28;20662;-76
2022/12/03 08:51:24;;;;;;;6.73;4.67;;;;;;;6.43;60.48;94715.22;5028449;28;20033;-76
2022/12/03 08:54:06;;;;;;;8.45;4.93;;;;;;;6.32;60.96;94709.16;5028987;28;20120;-77
2022/12/03 08:56:35;;;;;;;6.80;4.88;;;;;;;6.70;60.57;94744.03;5010758;28;20029;-77
2022/12/03 08:59:30;;;;;;;8.60;4.95;;;;;;;6.83;60.42;94739.00;5010924;28;20171;-77
2022/12/03 09:01:57;;;;;;;6.25;4.60;;;;;;;6.83;60.07;94736.34;5023885;28;20053;-76
2022/12/03 09:04:37;;;;;;;4.97;3.22;;;;;;;6.55;59.55;94709.69;5017262;28;20045;-77
2022/12/03 09:07:03;;;;;;;12.38;7.20;;;;;;;6.60;60.14;94731.63;5022645;28;20104;-77
2022/12/03 09:09:29;;;;;;;8.20;5.43;;;;;;;6.61;60.18;94722.63;5005551;28;20021;-75
2022/12/03 09:11:55;;;;;;;6.90;4.53;;;;;;;6.76;59.78;94727.88;5016360;28;20888;-76
2022/12/03 09:14:21;;;;;;;10.23;5.40;;;;;;;6.78;59.90;94723.13;5015051;28;20121;-74
2022/12/03 09:16:48;;;;;;;8.00;4.88;;;;;;;6.81;59.59;94717.31;5026213;28;20025;-75
2022/12/03 09:19:14;;;;;;;8.48;6.13;;;;;;;6.89;58.91;94736.34;5028158;28;20041;-77
2022/12/03 09:21:39;;;;;;;6.60;4.68;;;;;;;6.57;59.18;94704.91;5028748;28;20052;-77
2022/12/03 09:24:05;;;;;;;8.98;5.38;;;;;;;6.76;59.14;94719.97;5028460;28;20049;-75
2022/12/03 09:26:30;;;;;;;6.25;4.68;;;;;;;6.67;59.20;94703.06;5028370;28;20117;-76
2022/12/03 09:28:56;;;;;;;6.72;5.63;;;;;;;6.57;59.26;94708.34;5006470;28;20579;-75
2022/12/03 09:31:21;;;;;;;8.55;6.10;;;;;;;6.87;59.21;94733.97;5000605;28;20048;-76
2022/12/03 09:33:47;;;;;;;8.27;5.90;;;;;;;6.71;59.32;94722.59;5017979;28;20052;-76
2022/12/03 09:36:12;;;;;;;8.55;6.07;;;;;;;6.83;59.29;94733.72;5012793;28;20711;-77
2022/12/03 09:38:38;;;;;;;8.05;6.70;;;;;;;6.61;59.42;94674.25;5027232;28;20044;-76
2022/12/03 09:41:03;;;;;;;9.73;6.43;;;;;;;6.94;59.23;94723.13;5013693;28;20044;-75
2022/12/03 09:43:31;;;;;;;11.05;7.75;;;;;;;7.09;59.17;94715.91;5028595;28;20099;-76
2022/12/03 09:45:57;;;;;;;8.27;5.93;;;;;;;6.96;58.97;94700.63;5029956;28;20757;-77
2022/12/03 09:48:22;;;;;;;8.63;6.32;;;;;;;7.11;58.95;94705.06;5027778;28;20016;-76
2022/12/03 09:50:48;;;;;;;8.57;4.82;;;;;;;7.07;58.62;94722.56;5020005;28;20481;-77
2022/12/03 09:53:18;;;;;;;7.05;5.32;;;;;;;6.92;58.90;94714.66;5028738;28;20045;-76
2022/12/03 09:55:45;;;;;;;9.02;6.72;;;;;;;6.95;58.82;94703.53;5031507;28;20033;-76
2022/12/03 09:58:13;;;;;;;9.68;5.60;;;;;;;7.07;58.65;94701.38;5027920;28;20052;-77
2022/12/03 10:00:40;;;;;;;8.15;5.82;;;;;;;7.08;58.65;94705.63;5031287;28;20069;-76
2022/12/03 10:03:06;;;;;;;8.38;5.93;;;;;;;7.08;58.22;94702.97;5007214;28;20043;-76
2022/12/03 10:05:33;;;;;;;7.25;5.07;;;;;;;6.95;58.55;94687.66;5018846;28;20040;-76
2022/12/03 10:08:05;;;;;;;8.68;5.93;;;;;;;7.10;58.24;94700.84;5010754;28;20056;-77
2022/12/03 10:10:32;;;;;;;9.45;6.10;;;;;;;6.61;58.41;94653.88;5010774;28;20041;-77
2022/12/03 10:12:58;;;;;;;10.82;5.78;;;;;;;6.40;59.37;94674.28;5027582;28;20485;-76
2022/12/03 10:15:23;;;;;;;7.88;5.28;;;;;;;6.14;60.81;94682.44;5025127;28;20756;-76
2022/12/03 10:17:51;;;;;;;6.95;5.05;;;;;;;6.48;60.89;94691.44;5028263;28;20144;-76
2022/12/03 10:20:20;;;;;;;7.97;5.10;;;;;;;6.56;60.79;94684.81;5024085;28;20044;-76
2022/12/03 10:22:47;;;;;;;8.50;6.25;;;;;;;6.58;60.16;94675.59;5028262;28;20037;-76
2022/12/03 10:25:16;;;;;;;10.45;6.68;;;;;;;6.59;60.89;94684.31;5012094;28;20048;-76
2022/12/03 10:27:53;;;;;;;8.30;5.38;;;;;;;6.57;60.76;94681.91;5012149;28;20033;-78
2022/12/03 10:30:22;;;;;;;8.02;6.43;;;;;;;6.50;60.95;94665.56;5011590;28;20049;-76
2022/12/03 10:32:49;;;;;;;7.53;5.13;;;;;;;6.51;60.69;94687.47;5027329;28;20190;-76
2022/12/03 10:35:15;;;;;;;10.30;6.25;;;;;;;6.68;60.72;94683.50;5029366;28;20033;-76
2022/12/03 10:38:05;;;;;;;8.63;5.72;;;;;;;6.69;60.49;94687.72;5024336;28;20646;-76
2022/12/03 10:40:36;;;;;;;8.90;6.10;;;;;;;6.43;61.46;94688.81;5026687;28;20678;-76
2022/12/03 10:43:27;;;;;;;9.95;6.28;;;;;;;6.31;61.83;94685.66;5009969;28;20025;-76
2022/12/03 10:46:01;;;;;;;9.50;5.45;;;;;;;6.38;62.06;94680.88;5011173;28;20052;-75
2022/12/03 10:48:27;;;;;;;9.93;6.87;;;;;;;6.24;62.29;94662.13;5023920;28;20017;-76
2022/12/03 10:50:52;;;;;;;8.95;5.88;;;;;;;6.48;61.89;94677.44;5025743;28;20044;-76
2022/12/03 10:53:20;;;;;;;10.10;5.93;;;;;;;6.58;61.70;94675.59;5029155;28;20037;-76
2022/12/03 10:55:47;;;;;;;15.27;9.43;;;;;;;6.52;62.76;94675.84;5027146;28;20124;-76
2022/12/03 10:58:26;;;;;;;13.70;9.10;;;;;;;6.64;62.56;94671.09;5028920;28;20091;-75
2022/12/03 11:00:54;;;;;;;48.25;36.65;;;;;;;6.83;61.42;94667.59;5024453;28;20045;-75
2022/12/03 11:03:21;;;;;;;24.13;16.48;;;;;;;6.92;60.96;94653.81;5026752;28;20072;-75
2022/12/03 11:05:47;;;;;;;14.70;8.07;;;;;;;6.69;60.77;94656.00;5027573;28;20697;-75
2022/12/03 11:08:19;;;;;;;9.68;6.93;;;;;;;6.95;60.57;94664.66;5026841;28;20044;-75
2022/12/03 11:10:54;;;;;;;10.95;7.88;;;;;;;6.85;60.13;94620.50;5007305;28;20068;-76
2022/12/03 11:13:31;;;;;;;7.05;4.53;;;;;;;7.00;58.96;94661.97;5011123;28;20348;-75
2022/12/03 11:15:58;;;;;;;11.25;7.95;;;;;;;7.06;59.12;94662.75;5026051;28;20037;-75
2022/12/03 11:18:35;;;;;;;54.50;12.30;;;;;;;7.09;59.70;94664.88;5012424;28;20484;-75
2022/12/03 11:21:04;;;;;;;11.15;6.95;;;;;;;7.08;59.57;94663.31;5023575;28;20118;-76
2022/12/03 11:23:45;;;;;;;51.53;30.40;;;;;;;7.00;59.57;94658.53;5025064;28;20044;-76
2022/12/03 11:26:11;;;;;;;8.57;6.28;;;;;;;6.64;60.40;94666.59;5026378;28;20052;-75
2022/12/03 11:28:51;;;;;;;11.38;5.80;;;;;;;6.57;60.39;94649.41;5024205;28;20048;-75
2022/12/03 11:31:43;;;;;;;8.95;5.60;;;;;;;6.80;60.44;94662.84;5025426;28;20475;-76
2022/12/03 11:34:15;;;;;;;9.60;6.25;;;;;;;7.07;60.42;94664.34;5028102;28;20025;-75
2022/12/03 11:37:08;;;;;;;8.13;6.25;;;;;;;7.19;59.91;94657.69;5026349;28;20025;-76
2022/12/03 11:39:49;;;;;;;8.82;6.40;;;;;;;7.20;59.55;94653.19;5028444;28;20080;-76
2022/12/03 11:42:24;;;;;;;11.02;6.90;;;;;;;7.28;58.90;94652.63;5023821;28;20093;-75
2022/12/03 11:45:02;;;;;;;19.35;8.77;;;;;;;7.47;58.74;94656.25;5027879;28;20661;-76
2022/12/03 11:47:39;;;;;;;12.30;7.95;;;;;;;7.33;58.25;94626.16;5024927;28;20040;-76
2022/12/03 11:50:39;;;;;;;11.10;8.07;;;;;;;7.61;58.52;94643.19;5027233;28;20728;-76
2022/12/03 11:53:15;;;;;;;9.63;7.13;;;;;;;7.65;58.35;94644.22;5022294;28;20045;-76
2022/12/03 11:55:47;;;;;;;11.40;7.15;;;;;;;7.67;58.31;94627.03;5025492;28;20044;-76
2022/12/03 11:58:15;;;;;;;13.45;7.72;;;;;;;7.13;58.20;94620.97;5020210;28;20514;-76
2022/12/03 12:00:49;;;;;;;10.90;7.00;;;;;;;7.24;58.43;94648.94;5018948;28;20076;-76